createdAt,value
2023-02-14T00:01:53.331Z,6.97
2023-02-14T00:04:20.341Z,7.23
2023-02-14T00:06:46.973Z,7.70
2023-02-14T00:09:14.790Z,7.20
2023-02-14T00:11:41.574Z,7.30
2023-02-14T00:14:27.873Z,7.30
2023-02-14T00:16:54.428Z,7.83
2023-02-14T00:19:21.319Z,6.70
2023-02-14T00:21:48.431Z,7.80
2023-02-14T00:24:19.036Z,7.00
2023-02-14T00:26:45.772Z,8.00
2023-02-14T00:29:13.464Z,7.20
2023-02-14T00:31:40.644Z,7.57
2023-02-14T00:34:07.737Z,7.90
2023-02-14T00:36:34.929Z,7.30
2023-02-14T00:39:05.609Z,7.40
2023-02-14T00:41:32.246Z,7.43
2023-02-14T00:43:58.826Z,7.37
2023-02-14T00:46:25.826Z,7.77
2023-02-14T00:48:52.385Z,7.80
2023-02-14T00:51:19.393Z,8.03
2023-02-14T00:53:46.980Z,7.97
2023-02-14T00:56:13.695Z,7.43
2023-02-14T00:58:40.375Z,8.00
2023-02-14T01:01:07.387Z,8.87
2023-02-14T01:03:35.069Z,8.37
2023-02-14T01:06:01.710Z,7.67
2023-02-14T01:08:29.720Z,7.13
2023-02-14T01:10:56.221Z,8.30
2023-02-14T01:13:22.781Z,7.83
2023-02-14T01:15:50.864Z,8.77
2023-02-14T01:18:18.122Z,9.87
2023-02-14T01:20:45.071Z,7.97
2023-02-14T01:23:12.834Z,9.23
2023-02-14T01:25:39.967Z,9.07
2023-02-14T01:28:07.034Z,9.00
2023-02-14T01:30:33.545Z,9.40
2023-02-14T01:33:00.192Z,9.17
2023-02-14T01:35:26.788Z,9.30
2023-02-14T01:37:54.285Z,9.23
2023-02-14T01:40:20.858Z,9.17
2023-02-14T01:42:47.432Z,9.37
2023-02-14T01:45:21.426Z,8.80
2023-02-14T01:47:52.442Z,8.83
2023-02-14T01:50:24.012Z,9.07
2023-02-14T01:52:55.404Z,10.27
2023-02-14T01:55:24.670Z,9.47
2023-02-14T01:58:11.561Z,10.27
2023-02-14T02:00:56.922Z,9.17
2023-02-14T02:03:34.387Z,9.53
2023-02-14T02:06:05.868Z,10.20
2023-02-14T02:08:34.996Z,9.47
2023-02-14T02:11:01.888Z,8.97
2023-02-14T02:13:28.638Z,9.40
2023-02-14T02:15:56.478Z,9.90
2023-02-14T02:18:31.156Z,9.53
2023-02-14T02:21:00.874Z,8.77
2023-02-14T02:23:36.697Z,9.93
2023-02-14T02:26:03.218Z,9.43
2023-02-14T02:28:29.687Z,10.40
2023-02-14T02:31:15.540Z,9.93
2023-02-14T02:33:44.848Z,9.37
2023-02-14T02:36:11.370Z,8.93
2023-02-14T02:38:48.631Z,9.50
2023-02-14T02:41:23.028Z,9.10
2023-02-14T02:43:55.385Z,9.40
2023-02-14T02:46:56.017Z,9.07
2023-02-14T02:49:41.589Z,9.40
2023-02-14T02:52:32.429Z,10.87
2023-02-14T02:55:03.717Z,10.20
2023-02-14T02:57:34.741Z,9.27
2023-02-14T03:00:03.746Z,10.47
2023-02-14T03:02:32.177Z,9.97
2023-02-14T03:05:02.262Z,11.80
2023-02-14T03:07:34.954Z,10.80
2023-02-14T03:10:06.783Z,10.53
2023-02-14T03:12:33.414Z,10.43
2023-02-14T03:15:08.735Z,10.90
2023-02-14T03:17:38.118Z,10.23
2023-02-14T03:20:13.417Z,10.17
2023-02-14T03:22:53.573Z,10.47
2023-02-14T03:25:20.129Z,13.52
2023-02-14T03:27:52.916Z,12.30
2023-02-14T03:30:42.295Z,11.70
2023-02-14T03:33:17.468Z,11.30
2023-02-14T03:36:02.178Z,11.37
2023-02-14T03:38:49.585Z,10.43
2023-02-14T03:41:21.306Z,11.10
2023-02-14T03:44:09.445Z,11.30
2023-02-14T03:46:48.237Z,11.73
2023-02-14T03:49:16.728Z,10.10
2023-02-14T03:51:44.976Z,11.43
2023-02-14T03:54:12.791Z,12.00
2023-02-14T03:56:45.923Z,10.77
2023-02-14T03:59:16.484Z,11.63
2023-02-14T04:01:46.047Z,11.77
2023-02-14T04:04:14.595Z,10.90
2023-02-14T04:06:41.109Z,11.50
2023-02-14T04:09:07.631Z,12.03
2023-02-14T04:11:35.599Z,11.50
2023-02-14T04:14:02.501Z,11.43
2023-02-14T04:16:29.137Z,11.13
2023-02-14T04:19:14.375Z,10.73
2023-02-14T04:21:41.925Z,10.40
2023-02-14T04:24:08.593Z,15.23
2023-02-14T04:26:35.088Z,16.57
2023-02-14T04:29:01.692Z,15.13
2023-02-14T04:31:28.308Z,16.33
2023-02-14T04:33:55.044Z,15.17
2023-02-14T04:36:21.518Z,16.73
2023-02-14T04:38:48.061Z,15.37
2023-02-14T04:41:14.556Z,13.00
2023-02-14T04:43:41.072Z,12.33
2023-02-14T04:46:07.654Z,12.43
2023-02-14T04:48:34.157Z,14.33
2023-02-14T04:51:01.064Z,13.17
2023-02-14T04:53:27.787Z,13.10
2023-02-14T04:55:54.292Z,13.83
2023-02-14T04:58:20.817Z,14.60
2023-02-14T05:00:47.461Z,14.40
2023-02-14T05:03:13.983Z,14.23
2023-02-14T05:05:40.545Z,14.60
2023-02-14T05:08:07.045Z,13.80
2023-02-14T05:10:33.644Z,14.50
2023-02-14T05:13:00.815Z,12.60
2023-02-14T05:15:27.397Z,12.43
2023-02-14T05:17:53.918Z,12.60
2023-02-14T05:20:20.535Z,13.93
2023-02-14T05:22:47.050Z,15.53
2023-02-14T05:25:13.516Z,18.57
2023-02-14T05:27:40.027Z,16.40
2023-02-14T05:30:06.914Z,17.00
2023-02-14T05:32:33.493Z,17.13
2023-02-14T05:35:01.184Z,15.03
2023-02-14T05:37:27.974Z,14.37
2023-02-14T05:39:54.655Z,14.57
2023-02-14T05:42:21.299Z,15.63
2023-02-14T05:44:48.784Z,14.13
2023-02-14T05:47:15.425Z,13.97
2023-02-14T05:49:42.015Z,14.73
2023-02-14T05:52:08.512Z,15.30
2023-02-14T05:54:35.096Z,15.17
2023-02-14T05:57:01.925Z,14.73
2023-02-14T05:59:28.431Z,17.17
2023-02-14T06:01:54.942Z,20.73
2023-02-14T06:04:21.580Z,16.87
2023-02-14T06:06:48.158Z,14.90
2023-02-14T06:09:15.052Z,14.87
2023-02-14T06:11:41.699Z,13.80
2023-02-14T06:14:08.242Z,13.80
2023-02-14T06:16:34.845Z,14.27
2023-02-14T06:19:01.359Z,15.63
2023-02-14T06:21:27.909Z,14.57
2023-02-14T06:23:54.387Z,14.40
2023-02-14T06:26:20.967Z,13.20
2023-02-14T06:28:47.557Z,14.40
2023-02-14T06:31:17.517Z,14.40
2023-02-14T06:33:44.221Z,13.73
2023-02-14T06:36:10.838Z,13.57
2023-02-14T06:38:37.364Z,13.40
2023-02-14T06:41:04.856Z,13.57
2023-02-14T06:43:32.000Z,13.73
2023-02-14T06:45:58.649Z,14.40
2023-02-14T06:48:25.203Z,13.67
2023-02-14T06:50:52.446Z,14.07
2023-02-14T06:53:19.577Z,13.83
2023-02-14T06:55:46.528Z,13.93
2023-02-14T06:58:13.335Z,13.33
2023-02-14T07:00:39.926Z,15.00
2023-02-14T07:03:06.913Z,14.03
2023-02-14T07:05:33.872Z,14.67
2023-02-14T07:08:00.871Z,15.03
2023-02-14T07:10:27.425Z,16.47
2023-02-14T07:12:53.998Z,15.17
2023-02-14T07:15:20.614Z,16.73
2023-02-14T07:17:47.141Z,15.10
2023-02-14T07:20:13.741Z,14.57
2023-02-14T07:22:40.302Z,17.07
2023-02-14T07:25:07.285Z,14.47
2023-02-14T07:27:33.859Z,15.77
2023-02-14T07:30:00.452Z,17.27
2023-02-14T07:32:27.160Z,21.13
2023-02-14T07:34:53.784Z,18.80
2023-02-14T07:37:20.418Z,19.00
2023-02-14T07:39:46.960Z,18.20
2023-02-14T07:42:13.571Z,20.03
2023-02-14T07:44:40.215Z,17.33
2023-02-14T07:47:07.403Z,18.67
2023-02-14T07:49:33.945Z,19.83
2023-02-14T07:52:00.777Z,18.07
2023-02-14T07:54:27.362Z,16.40
2023-02-14T07:56:53.994Z,16.90
2023-02-14T07:59:20.569Z,16.30
2023-02-14T08:01:47.158Z,16.20
2023-02-14T08:04:13.999Z,15.83
2023-02-14T08:06:40.912Z,14.43
2023-02-14T08:09:07.652Z,15.70
2023-02-14T08:11:52.514Z,15.33
2023-02-14T08:14:19.057Z,15.30
2023-02-14T08:16:45.628Z,14.17
2023-02-14T08:19:12.127Z,15.13
2023-02-14T08:21:38.660Z,15.63
2023-02-14T08:24:05.251Z,15.30
2023-02-14T08:26:32.535Z,18.87
2023-02-14T08:28:59.068Z,18.40
2023-02-14T08:31:35.226Z,17.30
2023-02-14T08:34:02.466Z,16.73
2023-02-14T08:36:29.008Z,15.77
2023-02-14T08:38:56.052Z,15.90
2023-02-14T08:41:22.582Z,15.33
2023-02-14T08:43:49.872Z,14.67
2023-02-14T08:46:16.990Z,15.00
2023-02-14T08:48:43.798Z,15.17
2023-02-14T08:51:12.225Z,15.57
2023-02-14T08:53:41.813Z,14.90
2023-02-14T08:56:09.836Z,15.80
2023-02-14T08:58:38.349Z,14.70
2023-02-14T09:01:12.217Z,16.30
2023-02-14T09:03:39.009Z,16.37
2023-02-14T09:06:09.397Z,16.27
2023-02-14T09:08:36.715Z,15.47
2023-02-14T09:11:18.567Z,15.73
2023-02-14T09:13:45.824Z,16.93
2023-02-14T09:16:13.278Z,15.50
2023-02-14T09:18:40.176Z,16.17
2023-02-14T09:21:08.131Z,16.07
2023-02-14T09:23:34.702Z,16.03
2023-02-14T09:26:02.328Z,15.50
2023-02-14T09:28:29.013Z,14.13
2023-02-14T09:30:55.561Z,15.53
2023-02-14T09:33:22.453Z,16.17
2023-02-14T09:35:49.066Z,15.97
2023-02-14T09:38:15.596Z,15.37
2023-02-14T09:40:42.674Z,15.23
2023-02-14T09:43:18.392Z,15.13
2023-02-14T09:45:47.790Z,15.60
2023-02-14T09:48:31.001Z,15.00
2023-02-14T09:51:08.423Z,15.47
2023-02-14T09:53:44.561Z,14.63
2023-02-14T09:56:19.496Z,15.27
2023-02-14T09:58:50.357Z,15.33
2023-02-14T10:01:28.138Z,15.77
2023-02-14T10:04:13.443Z,15.13
2023-02-14T10:06:58.797Z,15.13
2023-02-14T10:09:43.745Z,15.03
2023-02-14T10:12:19.674Z,14.97
2023-02-14T10:14:47.227Z,14.87
2023-02-14T10:17:16.847Z,14.57
2023-02-14T10:19:45.532Z,15.80
2023-02-14T10:22:16.659Z,15.23
2023-02-14T10:24:47.588Z,14.70
2023-02-14T10:27:23.368Z,14.47
2023-02-14T10:29:50.139Z,14.30
2023-02-14T10:32:19.501Z,14.23
2023-02-14T10:34:46.009Z,14.33
2023-02-14T10:37:15.526Z,13.90
2023-02-14T10:39:42.052Z,15.60
2023-02-14T10:42:16.477Z,14.90
2023-02-14T10:45:02.361Z,13.97
2023-02-14T10:47:40.275Z,15.80
2023-02-14T10:50:09.895Z,14.63
2023-02-14T10:52:40.825Z,15.80
2023-02-14T10:55:20.262Z,13.93
2023-02-14T10:57:57.010Z,14.63
2023-02-14T11:00:26.051Z,15.17
2023-02-14T11:02:56.572Z,14.47
2023-02-14T11:05:40.567Z,14.93
2023-02-14T11:08:16.344Z,18.60
2023-02-14T11:10:43.004Z,16.63
2023-02-14T11:13:28.260Z,15.77
2023-02-14T11:15:58.620Z,22.17
2023-02-14T11:18:31.918Z,48.10
2023-02-14T11:21:10.788Z,28.10
2023-02-14T11:23:55.230Z,16.77
2023-02-14T11:26:30.640Z,14.57
2023-02-14T11:29:10.110Z,14.63
2023-02-14T11:31:37.740Z,13.93
2023-02-14T11:34:06.230Z,14.23
2023-02-14T11:36:38.718Z,13.57
2023-02-14T11:39:24.181Z,15.13
2023-02-14T11:41:56.151Z,13.80
2023-02-14T11:44:24.213Z,14.50
2023-02-14T11:46:53.834Z,13.40
2023-02-14T11:49:28.413Z,13.63
2023-02-14T11:51:55.556Z,13.77
2023-02-14T11:54:29.998Z,13.60
2023-02-14T11:57:01.951Z,14.00
2023-02-14T11:59:37.461Z,14.13
2023-02-14T12:02:13.083Z,13.50
2023-02-14T12:04:46.319Z,14.07
2023-02-14T12:07:18.043Z,13.60
2023-02-14T12:09:45.910Z,13.83
2023-02-14T12:12:21.238Z,13.63
2023-02-14T12:14:48.301Z,13.00
2023-02-14T12:17:14.840Z,14.40
2023-02-14T12:19:54.654Z,14.70
2023-02-14T12:22:23.963Z,14.90
2023-02-14T12:25:03.094Z,14.83
2023-02-14T12:27:43.164Z,14.90
2023-02-14T12:30:14.855Z,14.73
2023-02-14T12:32:49.558Z,16.00
2023-02-14T12:35:17.736Z,15.67
2023-02-14T12:37:45.502Z,19.73
2023-02-14T12:40:21.250Z,17.10
2023-02-14T12:42:59.925Z,17.97
2023-02-14T12:45:45.770Z,15.77
2023-02-14T12:48:22.759Z,15.40
2023-02-14T12:50:55.401Z,15.83
2023-02-14T12:53:30.901Z,15.50
2023-02-14T12:56:00.298Z,15.23
2023-02-14T12:58:36.109Z,17.47
2023-02-14T13:01:38.137Z,15.23
2023-02-14T13:04:25.503Z,16.87
2023-02-14T13:06:55.908Z,130.67
2023-02-14T13:09:40.302Z,19.70
2023-02-14T13:12:25.438Z,18.70
2023-02-14T13:15:06.899Z,18.80
2023-02-14T13:17:36.438Z,19.87
2023-02-14T13:20:22.048Z,19.37
2023-02-14T13:22:48.953Z,16.83
2023-02-14T13:25:31.647Z,17.80
2023-02-14T13:27:59.171Z,17.77
2023-02-14T13:30:29.888Z,17.77
2023-02-14T13:32:57.634Z,17.47
2023-02-14T13:35:26.029Z,18.90
2023-02-14T13:37:57.711Z,17.67
2023-02-14T13:40:25.910Z,18.60
2023-02-14T13:42:54.649Z,17.97
2023-02-14T13:45:37.698Z,19.07
2023-02-14T13:48:13.457Z,18.77
2023-02-14T13:50:49.074Z,21.50
2023-02-14T13:53:30.583Z,22.53
2023-02-14T13:55:57.268Z,26.33
2023-02-14T13:58:24.328Z,24.00
2023-02-14T14:00:52.054Z,28.42
2023-02-14T14:03:27.752Z,26.07
2023-02-14T14:06:14.654Z,25.67
2023-02-14T14:08:41.188Z,25.73
2023-02-14T14:11:33.933Z,24.13
2023-02-14T14:14:04.494Z,31.27
2023-02-14T14:16:33.283Z,26.93
2023-02-14T14:19:02.086Z,27.50
2023-02-14T14:21:35.266Z,27.60
2023-02-14T14:24:01.906Z,28.77
2023-02-14T14:26:39.662Z,31.47
2023-02-14T14:29:11.359Z,32.10
2023-02-14T14:31:38.233Z,31.63
2023-02-14T14:34:04.820Z,31.30
2023-02-14T14:36:31.344Z,37.10
2023-02-14T14:38:57.891Z,32.53
2023-02-14T14:41:28.943Z,30.37
2023-02-14T14:43:55.577Z,30.07
2023-02-14T14:46:22.471Z,29.73
2023-02-14T14:48:50.511Z,30.33
2023-02-14T14:51:23.358Z,30.80
2023-02-14T14:53:55.712Z,30.80
2023-02-14T14:56:23.701Z,29.73
2023-02-14T14:58:50.315Z,32.53
2023-02-14T15:01:35.386Z,31.50
2023-02-14T15:04:12.312Z,34.57
2023-02-14T15:06:39.073Z,30.77
2023-02-14T15:09:31.800Z,32.03
2023-02-14T15:12:20.732Z,30.77
2023-02-14T15:14:54.753Z,31.13
2023-02-14T15:17:29.260Z,31.87
2023-02-14T15:19:57.530Z,31.33
2023-02-14T15:22:26.301Z,31.67
2023-02-14T15:24:53.037Z,30.13
2023-02-14T15:27:21.465Z,36.70
2023-02-14T15:29:54.082Z,32.33
2023-02-14T15:32:20.895Z,31.60
2023-02-14T15:34:48.616Z,29.10
2023-02-14T15:37:15.395Z,31.93
2023-02-14T15:39:43.852Z,33.27
2023-02-14T15:42:30.836Z,32.10
2023-02-14T15:45:16.063Z,32.60
2023-02-14T15:47:46.519Z,29.37
2023-02-14T15:50:17.991Z,25.30
2023-02-14T15:52:45.443Z,23.43
2023-02-14T15:55:15.502Z,23.37
2023-02-14T15:57:44.426Z,24.07
2023-02-14T16:00:22.797Z,24.10
2023-02-14T16:02:57.338Z,22.30
2023-02-14T16:05:24.895Z,23.37
2023-02-14T16:08:03.628Z,23.03
2023-02-14T16:10:30.194Z,21.57
2023-02-14T16:12:59.135Z,22.00
2023-02-14T16:15:27.350Z,21.00
2023-02-14T16:17:53.923Z,21.93
2023-02-14T16:20:35.358Z,19.13
2023-02-14T16:23:20.675Z,20.60
2023-02-14T16:25:47.717Z,20.13
2023-02-14T16:28:14.668Z,22.20
2023-02-14T16:30:41.732Z,22.20
2023-02-14T16:33:18.226Z,20.53
2023-02-14T16:35:45.886Z,20.33
2023-02-14T16:38:15.872Z,20.13
2023-02-14T16:40:43.516Z,20.80
2023-02-14T16:43:14.426Z,19.67
2023-02-14T16:45:41.586Z,20.00
2023-02-14T16:48:08.544Z,18.80
2023-02-14T16:50:36.774Z,19.73
2023-02-14T16:53:04.054Z,19.40
2023-02-14T16:55:31.261Z,19.87
2023-02-14T16:57:58.500Z,19.67
2023-02-14T17:00:27.341Z,19.47
2023-02-14T17:03:04.459Z,21.17
2023-02-14T17:05:32.480Z,22.10
2023-02-14T17:08:01.564Z,21.47
2023-02-14T17:10:28.878Z,22.00
2023-02-14T17:12:56.573Z,22.33
2023-02-14T17:15:24.936Z,20.47
2023-02-14T17:17:54.716Z,18.53
2023-02-14T17:20:22.016Z,17.97
2023-02-14T17:22:48.552Z,17.50
2023-02-14T17:25:15.140Z,18.63
2023-02-14T17:27:46.242Z,18.63
2023-02-14T17:30:14.356Z,18.90
2023-02-14T17:32:41.184Z,18.63
2023-02-14T17:35:09.011Z,18.40
2023-02-14T17:37:36.315Z,18.40
2023-02-14T17:40:03.767Z,17.80
2023-02-14T17:42:33.691Z,17.17
2023-02-14T17:45:00.275Z,18.10
2023-02-14T17:47:26.860Z,17.23
2023-02-14T17:49:53.349Z,17.60
2023-02-14T17:52:21.976Z,16.97
2023-02-14T17:54:48.538Z,16.43
2023-02-14T17:57:15.407Z,17.30
2023-02-14T17:59:42.578Z,18.00
2023-02-14T18:02:09.663Z,17.57
2023-02-14T18:04:37.246Z,17.73
2023-02-14T18:07:04.396Z,18.27
2023-02-14T18:09:30.904Z,18.43
2023-02-14T18:11:57.504Z,18.50
2023-02-14T18:14:24.161Z,16.70
2023-02-14T18:16:50.717Z,19.63
2023-02-14T18:19:17.604Z,19.47
2023-02-14T18:21:45.021Z,17.23
2023-02-14T18:24:11.946Z,17.83
2023-02-14T18:26:39.626Z,17.47
2023-02-14T18:29:06.801Z,17.20
2023-02-14T18:31:34.224Z,17.57
2023-02-14T18:34:01.324Z,18.30
2023-02-14T18:36:28.492Z,17.60
2023-02-14T18:38:55.150Z,19.33
2023-02-14T18:41:22.183Z,20.27
2023-02-14T18:43:52.002Z,18.23
2023-02-14T18:46:22.840Z,17.87
2023-02-14T18:48:49.713Z,16.93
2023-02-14T18:51:17.594Z,17.80
2023-02-14T18:53:45.011Z,16.67
2023-02-14T18:56:12.885Z,18.97
2023-02-14T18:58:40.347Z,17.73
2023-02-14T19:01:11.313Z,22.03
2023-02-14T19:03:38.652Z,21.87
2023-02-14T19:06:05.644Z,24.50
2023-02-14T19:08:32.734Z,21.97
2023-02-14T19:10:59.514Z,21.63
2023-02-14T19:13:29.226Z,19.13
2023-02-14T19:15:56.363Z,18.20
2023-02-14T19:18:25.538Z,22.43
2023-02-14T19:20:52.272Z,20.37
2023-02-14T19:23:18.769Z,20.47
2023-02-14T19:25:45.353Z,18.83
2023-02-14T19:28:11.838Z,18.70
2023-02-14T19:30:38.452Z,20.17
2023-02-14T19:33:04.987Z,20.27
2023-02-14T19:35:31.459Z,19.03
2023-02-14T19:37:58.980Z,19.73
2023-02-14T19:40:26.356Z,19.67
2023-02-14T19:42:53.271Z,19.83
2023-02-14T19:45:19.804Z,19.43
2023-02-14T19:47:47.509Z,20.63
2023-02-14T19:50:14.202Z,20.47
2023-02-14T19:52:40.995Z,21.20
2023-02-14T19:55:07.845Z,21.53
2023-02-14T19:57:34.423Z,22.80
2023-02-14T20:00:00.936Z,22.17
2023-02-14T20:02:27.501Z,22.80
2023-02-14T20:04:58.815Z,23.03
2023-02-14T20:07:25.356Z,23.13
2023-02-14T20:09:51.905Z,22.30
2023-02-14T20:12:18.458Z,20.93
2023-02-14T20:14:51.275Z,19.63
2023-02-14T20:17:18.760Z,19.37
2023-02-14T20:19:45.413Z,20.00
2023-02-14T20:22:11.989Z,19.27
2023-02-14T20:24:38.539Z,21.50
2023-02-14T20:27:05.163Z,22.13
2023-02-14T20:29:32.318Z,22.87
2023-02-14T20:32:00.099Z,22.30
2023-02-14T20:34:27.183Z,22.80
2023-02-14T20:36:55.308Z,25.50
2023-02-14T20:39:23.384Z,22.73
2023-02-14T20:41:50.285Z,24.40
2023-02-14T20:44:19.871Z,24.30
2023-02-14T20:46:46.698Z,25.20
2023-02-14T20:49:13.663Z,22.40
2023-02-14T20:51:40.709Z,20.03
2023-02-14T20:54:07.507Z,20.47
2023-02-14T20:56:34.107Z,21.77
2023-02-14T20:59:01.665Z,21.93
2023-02-14T21:01:28.313Z,23.70
2023-02-14T21:03:55.412Z,23.23
2023-02-14T21:06:26.045Z,23.50
2023-02-14T21:08:52.793Z,23.03
2023-02-14T21:11:20.160Z,23.13
2023-02-14T21:13:46.973Z,23.80
2023-02-14T21:16:15.523Z,21.97
2023-02-14T21:18:42.953Z,23.77
2023-02-14T21:21:13.479Z,21.33
2023-02-14T21:23:40.703Z,24.30
2023-02-14T21:26:07.289Z,23.03
2023-02-14T21:28:33.843Z,22.13
2023-02-14T21:31:08.227Z,22.90
2023-02-14T21:33:35.327Z,23.67
2023-02-14T21:36:07.765Z,24.63
2023-02-14T21:38:34.536Z,27.03
2023-02-14T21:41:04.726Z,27.43
2023-02-14T21:43:33.644Z,24.40
2023-02-14T21:46:02.641Z,21.93
2023-02-14T21:48:47.683Z,22.70
2023-02-14T21:51:15.422Z,22.43
2023-02-14T21:53:42.642Z,22.97
2023-02-14T21:56:10.872Z,22.03
2023-02-14T21:58:38.274Z,22.73
2023-02-14T22:01:05.518Z,24.90
2023-02-14T22:03:32.600Z,23.07
2023-02-14T22:06:06.364Z,22.90
2023-02-14T22:08:33.172Z,24.47
2023-02-14T22:11:00.594Z,26.27
2023-02-14T22:13:27.278Z,27.20
2023-02-14T22:15:53.868Z,24.80
2023-02-14T22:18:20.403Z,23.53
2023-02-14T22:20:46.916Z,23.47
2023-02-14T22:23:13.430Z,24.13
2023-02-14T22:25:39.967Z,24.77
2023-02-14T22:28:06.533Z,24.20
2023-02-14T22:30:33.044Z,23.33
2023-02-14T22:32:59.703Z,22.27
2023-02-14T22:35:27.049Z,25.73
2023-02-14T22:37:53.583Z,25.83
2023-02-14T22:40:20.115Z,24.63
2023-02-14T22:42:46.631Z,25.47
2023-02-14T22:45:13.170Z,27.23
2023-02-14T22:47:39.670Z,25.67
2023-02-14T22:50:06.604Z,23.30
2023-02-14T22:52:34.022Z,27.33
2023-02-14T22:55:00.546Z,27.17
2023-02-14T22:57:27.114Z,27.37
2023-02-14T22:59:53.629Z,25.83
2023-02-14T23:02:20.148Z,26.30
2023-02-14T23:04:46.811Z,34.93
2023-02-14T23:07:13.335Z,32.47
2023-02-14T23:09:39.866Z,32.63
2023-02-14T23:12:26.329Z,30.67
2023-02-14T23:15:11.381Z,26.43
2023-02-14T23:17:56.595Z,27.67
2023-02-14T23:20:41.724Z,28.37
2023-02-14T23:23:08.219Z,27.50
2023-02-14T23:25:34.831Z,28.93
2023-02-14T23:28:01.354Z,29.23
2023-02-14T23:30:27.845Z,32.17
2023-02-14T23:32:54.787Z,28.77
2023-02-14T23:35:21.301Z,23.70
2023-02-14T23:37:47.824Z,22.97
2023-02-14T23:40:14.344Z,23.87
2023-02-14T23:42:40.976Z,25.37
2023-02-14T23:45:26.486Z,24.70
2023-02-14T23:47:53.079Z,24.37
2023-02-14T23:50:19.571Z,24.97
2023-02-14T23:52:46.114Z,25.33
2023-02-14T23:55:13.087Z,24.30
2023-02-14T23:57:39.691Z,25.63
